Time;durP1;ratioP1;P1;durP2;ratioP2;P2;SDS_P1;SDS_P2;PMS_P1;PMS_P2;Temp;Humidity;BMP_temperature;BMP_pressure;BME280_temperature;BME280_humidity;BME280_pressure;Samples;Min_cycle;Max_cycle;Signal;HPM_P1;HPM_P2
2022/05/01 00:00:11;;;;;;;19.00;11.65;;;7.50;99.90;;;;;;4973484;28;276280;-74
2022/05/01 00:02:37;;;;;;;20.00;11.85;;;7.50;99.90;;;;;;5010091;28;20061;-73
2022/05/01 00:05:04;;;;;;;20.15;13.38;;;7.50;99.90;;;;;;4957246;28;150002;-73
2022/05/01 00:07:32;;;;;;;18.60;12.55;;;7.50;99.90;;;;;;5006159;28;20076;-73
2022/05/01 00:09:59;;;;;;;17.45;12.55;;;7.50;99.90;;;;;;4968853;28;147030;-73
2022/05/01 00:12:26;;;;;;;19.65;12.73;;;7.40;99.90;;;;;;5008731;28;20053;-74
2022/05/01 00:14:52;;;;;;;20.00;13.27;;;7.40;99.90;;;;;;4971751;28;187991;-75
2022/05/01 00:17:18;;;;;;;20.40;12.50;;;7.40;99.90;;;;;;5014620;28;20052;-73
2022/05/01 00:19:44;;;;;;;17.73;12.15;;;7.40;99.90;;;;;;4977718;28;110984;-73
2022/05/01 00:22:10;;;;;;;20.98;12.85;;;7.40;99.90;;;;;;5026409;28;20057;-73
2022/05/01 00:24:36;;;;;;;16.67;11.02;;;7.40;99.90;;;;;;4993589;28;120708;-73
2022/05/01 00:27:02;;;;;;;17.98;12.25;;;7.40;99.90;;;;;;5015023;28;20050;-73
2022/05/01 00:29:31;;;;;;;20.52;13.77;;;7.40;99.90;;;;;;4975638;28;152816;-73
2022/05/01 00:31:57;;;;;;;20.35;12.95;;;7.30;99.90;;;;;;5015866;28;20050;-74
2022/05/01 00:37:07;;;;;;;18.77;11.93;;;7.30;99.90;;;;;;5017138;28;20053;-73
2022/05/01 00:39:34;;;;;;;21.45;13.52;;;7.30;99.90;;;;;;4989358;28;192374;-73
2022/05/01 00:42:00;;;;;;;18.15;13.27;;;7.20;99.90;;;;;;5034703;28;20049;-73
2022/05/01 00:44:26;;;;;;;17.08;11.25;;;7.20;99.90;;;;;;4975262;28;148479;-72
2022/05/01 00:46:53;;;;;;;21.45;14.02;;;7.10;99.90;;;;;;5009814;28;20050;-73
2022/05/01 00:49:20;;;;;;;17.52;12.90;;;7.10;99.90;;;;;;4977406;28;60461;-72
2022/05/01 00:51:50;;;;;;;19.05;12.88;;;7.00;99.90;;;;;;5017539;28;20049;-74
2022/05/01 00:54:18;;;;;;;18.95;12.52;;;7.00;99.90;;;;;;4984950;28;250551;-73
2022/05/01 00:56:47;;;;;;;19.52;12.65;;;7.00;99.90;;;;;;5033769;28;20057;-72
2022/05/01 00:59:14;;;;;;;16.65;11.70;;;6.90;99.90;;;;;;4965990;28;220527;-72
2022/05/01 01:01:42;;;;;;;18.25;11.48;;;6.90;99.90;;;;;;4994382;28;20520;-72
2022/05/01 01:04:09;;;;;;;19.90;13.77;;;6.90;99.90;;;;;;4975055;28;120659;-75
2022/05/01 01:06:40;;;;;;;22.45;14.02;;;6.80;99.90;;;;;;5032766;28;20045;-74
2022/05/01 01:09:07;;;;;;;18.23;12.90;;;6.80;99.90;;;;;;4971613;28;131568;-73
2022/05/01 01:11:33;;;;;;;21.85;12.65;;;6.70;99.90;;;;;;5034036;28;20057;-72
2022/05/01 01:14:00;;;;;;;20.92;13.50;;;6.60;99.90;;;;;;4970409;28;106073;-73
2022/05/01 01:16:26;;;;;;;21.38;12.98;;;6.60;99.90;;;;;;5039521;28;20057;-74
2022/05/01 01:18:53;;;;;;;20.33;12.88;;;6.60;99.90;;;;;;4987823;28;20055;-76
2022/05/01 01:21:20;;;;;;;20.35;13.05;;;6.50;99.90;;;;;;4992859;28;20042;-74
2022/05/01 01:23:46;;;;;;;19.77;13.52;;;6.40;99.90;;;;;;5004354;28;20063;-73
2022/05/01 01:26:14;;;;;;;20.17;13.50;;;6.40;99.90;;;;;;5018550;28;245010;-73
2022/05/01 01:28:41;;;;;;;20.38;13.73;;;6.40;99.90;;;;;;4984219;28;20076;-73
2022/05/01 01:33:59;;;;;;;21.67;11.82;;;6.20;99.90;;;;;;4995994;28;20124;-72
2022/05/01 01:36:28;;;;;;;21.05;13.50;;;6.20;99.90;;;;;;4985016;28;20034;-73
2022/05/01 01:38:55;;;;;;;20.15;12.77;;;6.20;99.90;;;;;;4977395;28;209346;-73
2022/05/01 01:41:24;;;;;;;20.17;14.02;;;6.10;99.90;;;;;;5037536;28;20068;-72
2022/05/01 01:43:50;;;;;;;18.05;12.73;;;6.10;99.90;;;;;;4984669;28;20051;-75
2022/05/01 01:46:17;;;;;;;21.23;13.82;;;6.10;99.90;;;;;;5000470;28;89382;-74
2022/05/01 01:48:45;;;;;;;22.88;15.88;;;6.10;99.90;;;;;;4984410;28;20045;-73
2022/05/01 01:51:11;;;;;;;21.23;14.82;;;6.10;99.90;;;;;;5031388;28;20139;-73
2022/05/01 01:53:38;;;;;;;20.80;15.13;;;6.00;99.90;;;;;;4970650;28;20054;-72
2022/05/01 01:56:07;;;;;;;25.33;15.70;;;6.00;99.90;;;;;;4995483;28;171779;-72
2022/05/01 01:58:33;;;;;;;21.38;14.20;;;6.00;99.90;;;;;;4970727;28;20413;-72
2022/05/01 02:00:59;;;;;;;23.25;14.13;;;6.00;99.90;;;;;;5026212;28;181869;-73
2022/05/01 02:03:27;;;;;;;20.08;14.00;;;5.90;99.90;;;;;;4984396;28;20056;-73
2022/05/01 02:05:53;;;;;;;22.38;13.52;;;5.90;99.90;;;;;;4993501;28;202931;-72
2022/05/01 02:08:19;;;;;;;21.30;13.88;;;5.90;99.90;;;;;;4991499;28;20883;-73
2022/05/01 02:10:47;;;;;;;20.90;14.35;;;5.80;99.90;;;;;;5017030;28;20044;-73
2022/05/01 02:13:13;;;;;;;21.67;15.38;;;5.80;99.90;;;;;;5012332;28;20057;-72
2022/05/01 02:15:39;;;;;;;21.60;14.25;;;5.70;99.90;;;;;;4984182;28;129623;-74
2022/05/01 02:18:06;;;;;;;21.20;13.82;;;5.70;99.90;;;;;;5013371;28;20482;-73
2022/05/01 02:23:19;;;;;;;19.83;14.90;;;5.60;99.90;;;;;;5020998;28;20044;-73
2022/05/01 02:25:46;;;;;;;22.95;15.85;;;5.60;99.90;;;;;;5019374;28;50295;-73
2022/05/01 02:28:12;;;;;;;23.60;15.80;;;5.50;99.90;;;;;;4995256;28;20092;-72
2022/05/01 02:30:39;;;;;;;21.17;16.05;;;5.50;99.90;;;;;;4996587;28;158437;-73
2022/05/01 02:33:08;;;;;;;20.50;15.32;;;5.40;99.90;;;;;;5009821;28;20052;-73
2022/05/01 02:35:35;;;;;;;23.55;15.98;;;5.40;99.90;;;;;;4980232;28;114108;-74
2022/05/01 02:38:02;;;;;;;21.88;15.23;;;5.30;99.90;;;;;;5026052;28;20049;-73
2022/05/01 02:40:29;;;;;;;24.50;15.70;;;5.30;99.90;;;;;;5005202;28;51047;-74
2022/05/01 02:42:58;;;;;;;18.63;13.98;;;5.30;99.90;;;;;;5030574;28;20042;-73
2022/05/01 02:45:25;;;;;;;21.17;15.25;;;5.20;99.90;;;;;;4999352;28;120542;-74
2022/05/01 02:47:51;;;;;;;20.80;14.93;;;5.20;99.90;;;;;;5011469;28;20054;-74
2022/05/01 02:50:17;;;;;;;20.67;14.85;;;5.20;99.90;;;;;;5001727;28;112713;-73
2022/05/01 02:52:44;;;;;;;20.90;15.75;;;5.10;99.90;;;;;;5010536;28;20410;-72
2022/05/01 02:55:10;;;;;;;21.30;15.45;;;5.10;99.90;;;;;;4998293;28;128708;-72
2022/05/01 02:57:36;;;;;;;21.30;15.82;;;5.00;99.90;;;;;;5014216;28;20056;-72
2022/05/01 03:00:05;;;;;;;21.23;14.15;;;5.00;99.90;;;;;;4994999;28;193047;-72
2022/05/01 03:02:32;;;;;;;18.95;13.98;;;5.00;99.90;;;;;;5028897;28;20080;-73
2022/05/01 03:04:58;;;;;;;19.05;13.90;;;5.00;99.90;;;;;;4963716;28;235001;-72
2022/05/01 03:07:24;;;;;;;19.67;13.93;;;5.00;99.90;;;;;;5029000;28;20050;-73
2022/05/01 03:09:52;;;;;;;21.40;14.30;;;4.90;99.90;;;;;;4982641;28;47904;-72
2022/05/01 03:12:19;;;;;;;20.40;14.50;;;4.90;99.90;;;;;;5006745;28;20057;-72
2022/05/01 03:14:45;;;;;;;20.30;14.77;;;4.90;99.90;;;;;;4990340;28;247931;-75
2022/05/01 03:17:12;;;;;;;21.70;14.68;;;4.80;99.90;;;;;;5032013;28;20053;-73
2022/05/01 03:22:23;;;;;;;21.58;13.45;;;4.70;99.90;;;;;;5032387;28;20052;-73
2022/05/01 03:24:50;;;;;;;21.45;15.35;;;4.70;99.90;;;;;;4980555;28;116908;-73
2022/05/01 03:27:17;;;;;;;20.38;14.50;;;4.60;99.90;;;;;;5034882;28;20521;-72
2022/05/01 03:30:15;;;;;;;21.27;14.35;;;4.60;99.90;;;;;;4995632;28;81956;-73
2022/05/01 03:32:29;;;;;;;21.25;14.73;;;4.50;99.90;;;;;;5028305;28;20050;-72
2022/05/01 03:34:56;;;;;;;21.90;15.18;;;4.50;99.90;;;;;;4991250;28;119657;-73
2022/05/01 03:37:23;;;;;;;22.83;15.35;;;4.40;99.90;;;;;;4999446;28;20049;-73
2022/05/01 03:39:49;;;;;;;22.40;14.70;;;4.40;99.90;;;;;;4988043;28;146132;-72
2022/05/01 03:42:15;;;;;;;22.05;14.93;;;4.40;99.90;;;;;;5016001;28;20048;-72
2022/05/01 03:44:41;;;;;;;21.05;15.55;;;4.30;99.90;;;;;;4970018;28;201582;-72
2022/05/01 03:47:07;;;;;;;21.42;15.50;;;4.30;99.90;;;;;;5027353;28;20056;-73
2022/05/01 03:49:33;;;;;;;22.02;16.35;;;4.20;99.90;;;;;;4972953;28;111471;-73
2022/05/01 03:51:59;;;;;;;20.95;15.00;;;4.20;99.90;;;;;;5027352;28;20045;-73
2022/05/01 03:54:25;;;;;;;22.15;14.32;;;4.20;99.90;;;;;;4990050;28;132639;-75
2022/05/01 03:56:53;;;;;;;21.40;14.88;;;4.10;99.90;;;;;;5013425;28;20045;-74
2022/05/01 03:59:19;;;;;;;23.08;15.27;;;4.10;99.90;;;;;;4989285;28;116491;-73
2022/05/01 04:01:45;;;;;;;20.33;14.35;;;4.10;99.90;;;;;;5017805;28;20053;-73
2022/05/01 04:04:11;;;;;;;21.83;14.90;;;4.00;99.90;;;;;;4962906;28;145874;-73
2022/05/01 04:06:37;;;;;;;21.73;15.75;;;4.00;99.90;;;;;;5005464;28;20057;-73
2022/05/01 04:09:04;;;;;;;24.97;16.53;;;4.00;99.90;;;;;;4985344;28;268964;-72
2022/05/01 04:11:30;;;;;;;21.90;15.75;;;4.00;99.90;;;;;;5006628;28;20057;-73
2022/05/01 04:13:56;;;;;;;20.17;14.60;;;3.90;99.90;;;;;;4960404;28;255065;-72
2022/05/01 04:16:22;;;;;;;22.08;15.63;;;3.90;99.90;;;;;;5026278;28;20041;-72
2022/05/01 04:18:48;;;;;;;24.40;16.13;;;3.90;99.90;;;;;;5005026;28;20425;-75
2022/05/01 04:21:14;;;;;;;20.95;14.75;;;3.80;99.90;;;;;;5028215;28;99762;-73
2022/05/01 04:23:40;;;;;;;20.65;14.05;;;3.90;99.90;;;;;;5001523;28;20057;-73
2022/05/01 04:26:06;;;;;;;27.52;19.25;;;3.80;99.90;;;;;;5014872;28;221186;-75
2022/05/01 04:28:33;;;;;;;26.70;17.95;;;3.80;99.90;;;;;;5001383;28;20060;-73
2022/05/01 04:30:59;;;;;;;25.88;17.23;;;3.90;99.90;;;;;;5003413;28;222361;-75
2022/05/01 04:33:25;;;;;;;20.52;15.13;;;3.90;99.90;;;;;;4999708;28;20414;-73
2022/05/01 04:35:51;;;;;;;25.27;17.55;;;3.90;99.90;;;;;;5032748;28;55142;-73
2022/05/01 04:38:24;;;;;;;21.63;15.60;;;3.90;99.90;;;;;;5019844;28;20060;-70
2022/05/01 04:40:55;;;;;;;24.55;16.77;;;4.00;99.90;;;;;;4988195;28;82553;-72
2022/05/01 04:43:26;;;;;;;27.05;18.50;;;3.90;99.90;;;;;;4997638;28;20407;-73
2022/05/01 04:45:55;;;;;;;29.05;17.65;;;3.90;99.90;;;;;;5012153;28;153903;-73
2022/05/01 04:48:22;;;;;;;21.08;16.17;;;4.00;99.90;;;;;;5000417;28;20065;-72
2022/05/01 04:50:49;;;;;;;22.60;15.40;;;4.00;99.90;;;;;;5031198;28;59794;-73
2022/05/01 04:53:18;;;;;;;24.65;17.58;;;4.10;99.90;;;;;;5004657;28;20452;-73
2022/05/01 04:55:46;;;;;;;24.00;17.98;;;4.10;99.90;;;;;;5006997;28;139010;-73
2022/05/01 04:58:16;;;;;;;22.08;16.00;;;4.20;99.90;;;;;;5010376;28;20068;-73
2022/05/01 05:00:44;;;;;;;22.10;16.33;;;4.20;99.90;;;;;;4986541;28;20045;-72
2022/05/01 05:03:10;;;;;;;22.77;15.50;;;4.30;99.90;;;;;;5028312;28;20125;-73
2022/05/01 05:05:37;;;;;;;20.23;15.63;;;4.30;99.90;;;;;;4964392;28;221486;-73
2022/05/01 05:10:49;;;;;;;20.63;13.90;;;4.50;99.90;;;;;;4964687;28;91675;-73
2022/05/01 05:13:21;;;;;;;21.05;14.70;;;4.50;99.90;;;;;;5005336;28;20045;-71
2022/05/01 05:15:48;;;;;;;20.75;15.50;;;4.60;99.90;;;;;;4993683;28;26431;-73
2022/05/01 05:18:14;;;;;;;19.83;14.38;;;4.70;99.90;;;;;;5030004;28;20046;-73
2022/05/01 05:20:41;;;;;;;20.98;15.38;;;4.70;99.90;;;;;;4997151;28;165588;-73
2022/05/01 05:23:07;;;;;;;22.92;16.08;;;4.80;99.90;;;;;;5009684;28;20045;-73
2022/05/01 05:25:33;;;;;;;21.02;16.30;;;4.80;99.90;;;;;;4979279;28;276507;-73
2022/05/01 05:27:59;;;;;;;25.38;17.83;;;4.90;99.90;;;;;;5010593;28;20695;-73
2022/05/01 05:30:26;;;;;;;21.35;14.88;;;5.00;99.90;;;;;;4985281;28;104580;-73
2022/05/01 05:32:52;;;;;;;23.38;16.38;;;5.00;99.90;;;;;;5005870;28;20064;-77
2022/05/01 05:35:18;;;;;;;25.52;18.35;;;5.10;99.90;;;;;;5007735;28;184306;-75
2022/05/01 05:37:44;;;;;;;27.45;18.63;;;5.20;99.90;;;;;;5030756;28;20050;-75
2022/05/01 05:40:11;;;;;;;28.73;19.08;;;5.30;99.90;;;;;;4975305;28;183476;-75
2022/05/01 05:42:37;;;;;;;26.77;19.40;;;5.30;99.90;;;;;;5015234;28;20046;-72
2022/05/01 05:45:03;;;;;;;27.52;19.48;;;5.40;99.90;;;;;;5002558;28;138947;-73
2022/05/01 05:47:29;;;;;;;25.55;19.58;;;5.50;99.90;;;;;;5030994;28;20049;-72
2022/05/01 05:49:56;;;;;;;26.48;18.88;;;5.50;99.90;;;;;;4997750;28;142325;-72
2022/05/01 05:52:22;;;;;;;25.08;19.10;;;5.60;99.90;;;;;;5019383;28;20064;-72
2022/05/01 05:54:48;;;;;;;20.58;14.68;;;5.70;99.90;;;;;;4983124;28;66931;-72
2022/05/01 05:57:14;;;;;;;24.42;18.38;;;5.90;99.90;;;;;;5020851;28;20045;-75
2022/05/01 05:59:40;;;;;;;27.90;19.65;;;6.20;99.90;;;;;;5000674;28;195005;-73
2022/05/01 06:02:07;;;;;;;22.92;16.38;;;6.60;99.90;;;;;;5035929;28;20285;-73
2022/05/01 06:04:33;;;;;;;21.40;16.75;;;6.90;99.90;;;;;;4964506;28;150232;-73
2022/05/01 06:06:59;;;;;;;23.42;16.13;;;7.20;99.90;;;;;;4994019;28;20072;-73
2022/05/01 06:09:25;;;;;;;22.75;15.30;;;7.40;99.90;;;;;;5004609;28;20055;-73
2022/05/01 06:11:51;;;;;;;19.23;13.35;;;7.70;99.90;;;;;;5024319;28;20057;-74
2022/05/01 06:14:18;;;;;;;18.05;13.85;;;8.10;99.90;;;;;;4975049;28;210438;-73
2022/05/01 06:16:44;;;;;;;20.02;13.45;;;8.50;99.90;;;;;;5021155;28;20049;-73
2022/05/01 06:19:10;;;;;;;17.65;13.00;;;8.80;99.90;;;;;;4990158;28;209375;-74
2022/05/01 06:21:36;;;;;;;17.80;12.02;;;9.10;99.90;;;;;;5044821;28;20056;-73
2022/05/01 06:24:02;;;;;;;16.00;11.68;;;9.50;99.90;;;;;;4969532;28;241492;-74
2022/05/01 06:26:28;;;;;;;18.15;11.70;;;9.80;99.90;;;;;;5042118;28;20048;-72
2022/05/01 06:28:55;;;;;;;17.17;11.07;;;10.10;99.90;;;;;;5002424;28;116631;-76
2022/05/01 06:31:21;;;;;;;14.48;9.93;;;10.40;99.90;;;;;;5025231;28;20056;-72
2022/05/01 06:33:47;;;;;;;13.90;9.90;;;10.70;99.90;;;;;;4989191;28;20053;-72
2022/05/01 06:36:16;;;;;;;14.38;9.77;;;10.90;99.90;;;;;;4997631;28;206746;-74
2022/05/01 06:38:44;;;;;;;15.20;9.50;;;11.10;99.90;;;;;;4988079;28;20036;-73
2022/05/01 06:41:10;;;;;;;15.23;9.55;;;11.40;99.90;;;;;;5011638;28;144573;-72
2022/05/01 06:43:36;;;;;;;13.80;8.65;;;11.60;99.90;;;;;;4972196;28;20464;-74
2022/05/01 06:46:03;;;;;;;13.32;8.35;;;11.80;99.90;;;;;;5006022;28;142827;-73
2022/05/01 06:48:29;;;;;;;14.40;8.02;;;12.20;99.90;;;;;;5003460;28;20415;-72
2022/05/01 06:50:56;;;;;;;14.98;8.05;;;12.50;99.90;;;;;;5035158;28;78696;-73
2022/05/01 06:53:22;;;;;;;14.70;8.70;;;12.80;99.90;;;;;;4981124;28;20065;-72
2022/05/01 06:55:49;;;;;;;14.32;8.25;;;12.90;99.90;;;;;;5028167;28;164779;-73
2022/05/01 06:58:15;;;;;;;15.18;7.57;;;13.00;99.90;;;;;;5036081;28;20054;-73
2022/05/01 07:00:41;;;;;;;11.65;6.95;;;13.20;99.90;;;;;;4985074;28;20056;-73
2022/05/01 07:03:07;;;;;;;12.90;6.53;;;13.30;99.90;;;;;;5034879;28;20048;-72
2022/05/01 07:05:33;;;;;;;11.70;6.43;;;13.40;99.90;;;;;;4973863;28;138914;-72
2022/05/01 07:08:00;;;;;;;10.70;5.65;;;13.50;99.90;;;;;;5034027;28;20049;-73
2022/05/01 07:10:26;;;;;;;10.60;5.28;;;13.60;99.90;;;;;;4982482;28;170036;-73
2022/05/01 07:12:53;;;;;;;9.88;4.95;;;13.80;99.90;;;;;;5011665;28;20045;-73
2022/05/01 07:15:19;;;;;;;10.00;4.45;;;13.90;99.90;;;;;;4980741;28;234413;-73
2022/05/01 07:17:45;;;;;;;10.05;5.00;;;13.70;99.90;;;;;;5011082;28;20058;-73
2022/05/01 07:20:11;;;;;;;11.90;5.50;;;13.60;99.90;;;;;;4980879;28;122550;-73
2022/05/01 07:22:38;;;;;;;11.18;5.00;;;13.60;99.90;;;;;;5010969;28;20045;-72
2022/05/01 07:25:04;;;;;;;9.25;5.05;;;13.60;99.90;;;;;;4976731;28;126848;-72
2022/05/01 07:27:31;;;;;;;11.18;5.20;;;13.80;99.90;;;;;;5033697;28;20067;-73
2022/05/01 07:29:57;;;;;;;11.68;5.50;;;13.90;99.90;;;;;;4996108;28;150500;-74
2022/05/01 07:32:23;;;;;;;10.23;5.10;;;14.00;99.90;;;;;;5031535;28;20044;-72
2022/05/01 07:34:49;;;;;;;9.90;5.10;;;14.10;99.90;;;;;;4982961;28;217410;-72
2022/05/01 07:37:16;;;;;;;10.02;4.97;;;14.30;99.90;;;;;;5009191;28;20048;-73
2022/05/01 07:39:43;;;;;;;9.38;5.07;;;14.60;99.90;;;;;;4967083;28;241025;-72
2022/05/01 07:42:10;;;;;;;11.00;5.18;;;15.00;99.90;;;;;;5020677;28;20049;-73
2022/05/01 07:44:36;;;;;;;10.55;4.75;;;15.20;99.90;;;;;;4974979;28;136198;-72
2022/05/01 07:47:02;;;;;;;9.60;4.50;;;15.30;99.80;;;;;;5010040;28;20076;-72
2022/05/01 07:49:28;;;;;;;8.88;4.45;;;15.20;99.60;;;;;;4978851;28;146506;-72
2022/05/01 07:51:56;;;;;;;11.15;4.30;;;15.10;98.10;;;;;;5035959;28;20058;-73
2022/05/01 07:54:22;;;;;;;9.88;4.07;;;14.80;97.80;;;;;;4984903;28;214934;-73
2022/05/01 07:56:49;;;;;;;8.68;4.18;;;14.50;98.30;;;;;;5018309;28;20049;-72
2022/05/01 07:59:15;;;;;;;9.45;4.10;;;14.40;98.20;;;;;;4991020;28;150708;-72
2022/05/01 08:01:41;;;;;;;10.55;4.35;;;14.40;98.40;;;;;;5021192;28;20072;-73
2022/05/01 08:06:52;;;;;;;8.23;3.50;;;14.80;98.60;;;;;;5016227;28;20072;-72
2022/05/01 08:09:18;;;;;;;9.13;3.95;;;14.80;97.60;;;;;;4975498;28;124160;-72
2022/05/01 08:11:45;;;;;;;8.63;4.07;;;14.50;96.10;;;;;;5037864;28;20049;-72
2022/05/01 08:14:12;;;;;;;10.43;4.60;;;14.50;97.30;;;;;;4976675;28;22902;-73
2022/05/01 08:16:39;;;;;;;8.85;3.58;;;14.80;98.40;;;;;;5015176;28;20064;-73
2022/05/01 08:21:51;;;;;;;10.73;3.78;;;15.30;97.00;;;;;;5027354;22;20056;-83
2022/05/01 08:24:17;;;;;;;10.80;3.75;;;15.60;96.60;;;;;;4993387;28;98161;-83
2022/05/01 08:26:47;;;;;;;9.93;3.80;;;15.80;96.30;;;;;;5033489;28;20049;-84
2022/05/01 08:29:16;;;;;;;8.95;3.55;;;15.80;95.50;;;;;;4971269;28;160685;-84
2022/05/01 08:31:43;;;;;;;10.02;3.97;;;15.80;95.20;;;;;;5014955;28;20049;-84
2022/05/01 08:34:10;;;;;;;8.73;3.80;;;15.70;95.00;;;;;;4977590;28;142007;-83
2022/05/01 08:36:36;;;;;;;8.73;3.80;;;15.50;91.60;;;;;;5017451;23;20045;-73
2022/05/01 08:39:03;;;;;;;11.50;4.30;;;14.90;93.70;;;;;;4990478;28;195390;-74
2022/05/01 08:41:31;;;;;;;10.15;4.20;;;14.90;94.20;;;;;;5009129;28;20061;-74
2022/05/01 08:43:58;;;;;;;10.20;3.95;;;15.00;94.60;;;;;;4992148;28;119688;-74
2022/05/01 08:46:54;;;;;;;9.80;3.90;;;15.10;95.20;;;;;;5007824;28;20042;-74
2022/05/01 08:49:22;;;;;;;8.88;4.00;;;15.20;94.40;;;;;;4986690;28;188037;-73
2022/05/01 08:51:50;;;;;;;11.07;4.05;;;15.40;95.10;;;;;;5031521;28;20057;-73
2022/05/01 08:54:16;;;;;;;9.18;4.10;;;15.70;95.00;;;;;;4990607;28;180900;-74
2022/05/01 08:56:44;;;;;;;10.43;4.35;;;16.10;94.50;;;;;;5022055;28;20045;-73
2022/05/01 08:59:15;;;;;;;9.70;3.97;;;16.30;94.50;;;;;;4989464;28;85540;-72
2022/05/01 09:01:45;;;;;;;11.05;3.60;;;16.40;93.90;;;;;;5012707;28;20064;-74
2022/05/01 09:04:13;;;;;;;8.90;3.67;;;16.70;93.80;;;;;;4956170;28;216240;-74
2022/05/01 09:06:41;;;;;;;9.25;3.60;;;17.10;94.00;;;;;;5027273;28;20046;-76
2022/05/01 09:09:25;;;;;;;10.37;4.23;;;17.50;92.90;;;;;;4981992;28;355309;-74
2022/05/01 09:14:40;;;;;;;9.80;3.63;;;17.60;90.10;;;;;;4966462;28;116280;-74
2022/05/01 09:17:19;;;;;;;9.20;4.30;;;17.60;90.50;;;;;;5023012;28;20414;-73
2022/05/01 09:19:50;;;;;;;9.13;3.88;;;17.60;86.00;;;;;;4980569;28;189497;-74
2022/05/01 09:22:16;;;;;;;;;;;17.50;86.30;;;;;;5013501;28;20050;-74
2022/05/01 09:24:43;;;;;;;8.63;3.70;;;17.40;86.00;;;;;;4990039;28;96750;-73
2022/05/01 09:27:32;;;;;;;10.20;3.83;;;17.50;88.00;;;;;;5025743;28;20052;-74
2022/05/01 09:30:20;;;;;;;8.82;4.00;;;17.70;87.50;;;;;;4999565;28;90568;-74
2022/05/01 09:32:48;;;;;;;8.25;3.70;;;18.00;84.80;;;;;;5031641;28;20075;-75
2022/05/01 09:35:33;;;;;;;11.02;3.65;;;18.10;84.80;;;;;;4999300;28;178563;-74
2022/05/01 09:38:22;;;;;;;8.93;3.78;;;18.00;81.90;;;;;;5032732;28;20046;-74
2022/05/01 09:40:57;;;;;;;9.25;3.70;;;18.10;80.20;;;;;;4956301;28;20045;-74
2022/05/01 09:43:41;;;;;;;10.00;3.80;;;18.30;80.70;;;;;;4999013;28;20057;-74
2022/05/01 09:46:22;;;;;;;9.45;3.70;;;18.30;76.80;;;;;;5009375;28;177333;-73
2022/05/01 09:49:04;;;;;;;10.50;4.22;;;18.20;74.50;;;;;;4984710;28;20434;-73
2022/05/01 09:51:32;;;;;;;8.55;3.67;;;18.00;74.10;;;;;;5003645;28;20060;-75
2022/05/01 09:54:00;;;;;;;9.60;3.60;;;17.60;71.50;;;;;;4975586;28;101437;-75
2022/05/01 09:56:26;;;;;;;10.35;4.03;;;16.80;74.60;;;;;;5009879;28;20053;-76
2022/05/01 09:59:02;;;;;;;9.23;3.72;;;16.60;75.50;;;;;;4991716;28;20072;-75
2022/05/01 10:01:29;;;;;;;9.82;3.67;;;16.90;76.90;;;;;;4991149;28;20049;-75
2022/05/01 10:03:59;;;;;;;8.95;3.58;;;17.20;79.50;;;;;;4990585;28;253116;-74
2022/05/01 10:06:29;;;;;;;8.35;3.30;;;17.80;79.50;;;;;;5003353;28;107067;-75
2022/05/01 10:08:56;;;;;;;10.25;3.60;;;18.10;77.40;;;;;;4979092;28;45761;-74
2022/05/01 10:11:24;;;;;;;9.23;2.95;;;18.60;76.10;;;;;;5009631;28;20414;-74
2022/05/01 10:13:51;;;;;;;9.43;3.20;;;18.90;69.50;;;;;;5001892;28;20044;-77
2022/05/01 10:16:17;;;;;;;7.93;3.13;;;19.00;71.80;;;;;;4994118;28;166185;-74
2022/05/01 10:18:45;;;;;;;9.10;3.20;;;19.30;70.20;;;;;;4994257;28;20053;-74
2022/05/01 10:21:12;;;;;;;8.15;2.97;;;19.60;67.30;;;;;;5010213;28;150922;-75
2022/05/01 10:23:40;;;;;;;7.75;2.70;;;19.80;65.90;;;;;;4999915;28;20042;-74
2022/05/01 10:26:14;;;;;;;8.07;2.78;;;20.20;67.10;;;;;;5009906;28;173044;-74
2022/05/01 10:28:59;;;;;;;8.25;2.97;;;20.80;67.80;;;;;;5004146;28;20038;-74
2022/05/01 10:35:10;;;;;;;8.18;2.97;;;21.10;62.00;;;;;;5002365;28;20060;-76
2022/05/01 10:37:47;;;;;;;9.57;3.00;;;21.30;54.90;;;;;;4929590;28;20051;-74
2022/05/01 10:40:14;;;;;;;7.38;2.60;;;21.10;58.80;;;;;;4925748;28;170243;-74
2022/05/01 10:42:52;;;;;;;7.88;2.92;;;20.80;54.60;;;;;;4945227;28;20055;-74
2022/05/01 10:45:25;;;;;;;7.65;2.53;;;20.80;52.30;;;;;;4931983;28;34349;-75
2022/05/01 10:47:55;;;;;;;8.20;2.90;;;21.10;54.80;;;;;;4957741;28;20062;-74
2022/05/01 10:50:27;;;;;;;7.97;2.70;;;21.20;53.60;;;;;;4924939;28;211939;-74
2022/05/01 10:53:16;;;;;;;7.82;2.47;;;21.50;50.00;;;;;;4957623;28;20147;-75
2022/05/01 10:56:22;;;;;;;7.72;2.88;;;21.30;51.40;;;;;;4914411;28;218829;-74
2022/05/01 10:58:48;;;;;;;8.43;2.50;;;20.80;47.20;;;;;;4921600;28;20047;-74
2022/05/01 11:01:14;;;;;;;8.18;2.60;;;20.30;49.70;;;;;;4958586;28;88546;-74
2022/05/01 11:03:51;;;;;;;7.85;2.47;;;20.00;50.00;;;;;;4947486;28;20124;-75
2022/05/01 11:06:20;;;;;;;9.15;2.58;;;20.30;51.00;;;;;;4918085;28;213261;-73
2022/05/01 11:08:46;;;;;;;7.57;2.55;;;20.60;50.90;;;;;;4967161;28;20044;-76
2022/05/01 11:11:13;;;;;;;7.25;2.50;;;20.80;50.30;;;;;;5005507;28;193165;-74
2022/05/01 11:13:41;;;;;;;7.20;2.63;;;20.80;48.50;;;;;;4998989;28;20050;-74
2022/05/01 11:16:09;;;;;;;8.48;2.85;;;20.30;46.60;;;;;;5011844;28;85182;-74
2022/05/01 11:18:42;;;;;;;9.10;2.60;;;20.00;49.50;;;;;;5015137;28;20283;-74
2022/05/01 11:21:23;;;;;;;8.07;2.80;;;19.90;50.20;;;;;;5028456;28;141025;-76
2022/05/01 11:23:59;;;;;;;8.18;2.95;;;19.80;50.10;;;;;;5016030;28;20044;-75
2022/05/01 11:26:26;;;;;;;8.05;3.03;;;19.40;48.90;;;;;;5001358;28;20060;-74
2022/05/01 11:29:17;;;;;;;9.65;3.25;;;18.70;51.50;;;;;;4988062;28;20054;-75
2022/05/01 11:31:46;;;;;;;9.43;3.20;;;18.20;50.90;;;;;;4986820;28;20478;-74
2022/05/01 11:34:22;;;;;;;8.02;3.15;;;17.70;53.40;;;;;;4982403;28;231853;-74
2022/05/01 11:36:51;;;;;;;8.38;3.03;;;17.20;53.90;;;;;;5021669;28;20061;-74
2022/05/01 11:39:17;;;;;;;8.30;3.35;;;16.80;54.20;;;;;;4984301;28;217537;-74
2022/05/01 11:41:44;;;;;;;8.15;3.28;;;16.50;55.30;;;;;;5034005;28;20039;-74
2022/05/01 11:44:24;;;;;;;8.52;3.33;;;16.40;56.80;;;;;;4965587;28;237254;-75
2022/05/01 11:46:52;;;;;;;7.95;3.20;;;16.20;55.10;;;;;;5024196;28;20053;-74
2022/05/01 11:49:18;;;;;;;9.15;3.35;;;15.90;57.60;;;;;;4984209;28;210964;-74
2022/05/01 11:51:47;;;;;;;9.23;2.90;;;15.90;57.70;;;;;;5006415;28;20521;-75
2022/05/01 11:54:15;;;;;;;7.90;3.22;;;16.00;58.10;;;;;;4984384;28;172856;-75
2022/05/01 12:02:24;;;;;;;9.18;3.13;;;16.60;59.00;;;;;;5020492;28;20052;-75
2022/05/01 12:04:56;;;;;;;7.78;3.10;;;16.60;56.80;;;;;;4978281;28;96687;-74
2022/05/01 12:07:22;;;;;;;7.70;2.88;;;16.80;59.20;;;;;;5023977;28;20049;-74
2022/05/01 12:09:51;;;;;;;8.82;3.05;;;17.30;60.00;;;;;;4985982;28;112959;-75
2022/05/01 12:12:21;;;;;;;8.57;2.80;;;17.90;57.70;;;;;;5014544;28;20510;-74
2022/05/01 12:14:48;;;;;;;7.80;2.97;;;18.40;55.60;;;;;;4985037;28;187942;-74
2022/05/01 12:17:19;;;;;;;9.57;3.20;;;18.30;54.70;;;;;;5023915;28;20308;-74
2022/05/01 12:19:48;;;;;;;8.10;2.97;;;18.50;54.20;;;;;;4994583;28;212801;-74
2022/05/01 12:22:16;;;;;;;10.35;3.15;;;18.50;55.40;;;;;;5025812;28;20408;-74
2022/05/01 12:24:44;;;;;;;8.00;2.60;;;18.70;55.80;;;;;;5001176;28;166713;-74
2022/05/01 12:27:12;;;;;;;7.68;2.88;;;18.60;54.50;;;;;;5035921;28;20049;-74
2022/05/01 12:29:46;;;;;;;8.95;2.83;;;18.50;53.30;;;;;;5002272;28;140452;-74
2022/05/01 12:32:17;;;;;;;9.38;2.70;;;18.50;54.70;;;;;;5034573;28;20053;-74
2022/05/01 12:34:46;;;;;;;7.20;2.88;;;18.70;56.40;;;;;;4990174;28;229664;-74
2022/05/01 12:37:18;;;;;;;9.45;2.83;;;19.00;55.10;;;;;;5015210;28;20045;-74
2022/05/01 12:39:58;;;;;;;9.68;3.20;;;18.80;53.60;;;;;;5010629;28;97375;-75
2022/05/01 12:45:22;;;;;;;8.88;3.25;;;18.50;54.90;;;;;;4981746;28;34201;-73
2022/05/01 12:47:50;;;;;;;9.18;3.08;;;18.50;55.00;;;;;;5041842;28;20076;-74
2022/05/01 12:50:19;;;;;;;7.43;2.92;;;18.30;55.10;;;;;;5001865;28;177984;-74
2022/05/01 12:52:48;;;;;;;7.18;2.67;;;18.20;55.60;;;;;;5013983;28;20060;-74
2022/05/01 12:55:18;;;;;;;8.60;3.05;;;18.20;55.70;;;;;;5011241;28;151094;-74
2022/05/01 12:58:03;;;;;;;8.70;3.15;;;18.00;54.60;;;;;;5018882;28;20502;-75
2022/05/01 13:00:33;;;;;;;8.27;3.17;;;17.60;56.00;;;;;;4999454;28;100151;-74
2022/05/01 13:03:24;;;;;;;7.43;3.08;;;17.70;57.70;;;;;;5026522;28;20045;-74
2022/05/01 13:06:14;;;;;;;7.50;3.20;;;17.80;57.60;;;;;;4969570;28;147474;-74
2022/05/01 13:08:40;;;;;;;8.02;2.90;;;17.90;58.40;;;;;;5004820;28;20042;-75
2022/05/01 13:11:29;;;;;;;8.82;3.00;;;18.00;58.40;;;;;;5011056;28;160524;-75
2022/05/01 13:14:01;;;;;;;7.93;2.75;;;18.20;59.40;;;;;;4990595;28;168097;-74
2022/05/01 13:16:31;;;;;;;8.65;2.60;;;18.30;58.80;;;;;;5023519;28;20064;-74